createdAt,value
2022-08-10T00:02:28.079Z,102956.09
2022-08-10T00:07:36.259Z,102957.53
2022-08-10T00:12:53.485Z,102965.38
2022-08-10T00:17:58.917Z,102964.69
2022-08-10T00:23:01.722Z,102968.34
2022-08-10T00:28:04.291Z,102967.19
2022-08-10T00:33:06.085Z,102972.63
2022-08-10T00:38:08.740Z,102964.03
2022-08-10T00:43:12.717Z,102971.50
2022-08-10T00:48:14.526Z,102960.34
2022-08-10T00:53:16.396Z,102966.31
2022-08-10T00:58:25.721Z,102968.56
2022-08-10T01:04:40.219Z,102973.22
2022-08-10T01:09:08.973Z,102973.84
2022-08-10T01:14:30.907Z,102973.56
2022-08-10T01:19:54.454Z,102967.19
2022-08-10T01:25:32.842Z,102962.97
2022-08-10T01:30:37.580Z,102959.09
2022-08-10T01:35:46.784Z,102952.88
2022-08-10T01:41:05.599Z,102949.69
2022-08-10T01:46:08.344Z,102964.31
2022-08-10T01:51:24.574Z,102964.19
2022-08-10T01:56:33.677Z,102962.38
2022-08-10T02:01:40.841Z,102957.66
2022-08-10T02:06:51.939Z,102960.06
2022-08-10T02:12:07.565Z,102952.00
2022-08-10T02:17:57.773Z,102949.63
2022-08-10T02:22:41.753Z,102948.94
2022-08-10T02:27:47.166Z,102948.13
2022-08-10T02:32:55.359Z,102940.16
2022-08-10T02:38:02.560Z,102941.91
2022-08-10T02:45:20.721Z,102944.47
2022-08-10T02:49:09.150Z,102933.69
2022-08-10T02:54:16.301Z,102936.75
2022-08-10T02:59:25.749Z,102932.88
2022-08-10T03:04:57.205Z,102925.59
2022-08-10T03:09:58.730Z,102927.84
2022-08-10T03:15:00.990Z,102922.47
2022-08-10T03:20:38.373Z,102919.63
2022-08-10T03:25:31.402Z,102925.88
2022-08-10T03:30:35.434Z,102928.41
2022-08-10T03:35:41.793Z,102937.19
2022-08-10T03:41:16.182Z,102929.97
2022-08-10T03:46:20.158Z,102932.00
2022-08-10T03:51:24.753Z,102928.78
2022-08-10T03:56:32.836Z,102924.03
2022-08-10T04:02:45.312Z,102935.56
2022-08-10T04:06:59.902Z,102937.84
2022-08-10T04:12:04.168Z,102940.41
2022-08-10T04:17:13.929Z,102938.91
2022-08-10T04:22:22.602Z,102942.31
2022-08-10T04:27:25.726Z,102950.72
2022-08-10T04:32:31.937Z,102959.66
2022-08-10T04:37:37.383Z,102951.41
2022-08-10T04:42:53.228Z,102957.50
2022-08-10T04:48:03.744Z,102952.59
2022-08-10T04:53:08.695Z,102946.19
2022-08-10T04:58:13.079Z,102954.28
2022-08-10T05:03:17.326Z,102947.69
2022-08-10T05:08:21.347Z,102948.66
2022-08-10T05:13:23.087Z,102949.97
2022-08-10T05:18:24.942Z,102946.56
2022-08-10T05:23:26.864Z,102942.16
2022-08-10T05:28:35.304Z,102946.34
2022-08-10T05:33:40.929Z,102950.00
2022-08-10T05:38:47.555Z,102940.47
2022-08-10T05:43:49.741Z,102935.66
2022-08-10T05:48:56.837Z,102950.97
2022-08-10T05:54:06.802Z,102954.75
2022-08-10T05:59:11.265Z,102955.16
2022-08-10T06:04:20.238Z,102963.94
2022-08-10T06:09:24.249Z,102954.25
2022-08-10T06:14:52.954Z,102959.41
2022-08-10T06:20:06.640Z,102953.00
2022-08-10T06:30:35.078Z,102957.72
2022-08-10T06:35:36.969Z,102962.00
2022-08-10T06:40:40.854Z,102966.31
2022-08-10T06:46:08.089Z,102961.28
2022-08-10T06:51:18.214Z,102963.91
2022-08-10T06:56:36.128Z,102969.25
2022-08-10T07:01:43.839Z,102975.59
2022-08-10T07:06:53.886Z,102972.81
2022-08-10T07:12:16.114Z,102977.75
2022-08-10T07:17:22.818Z,102976.63
2022-08-10T07:23:27.284Z,102975.28
2022-08-10T07:28:00.815Z,102979.75
2022-08-10T07:33:07.469Z,102974.88
2022-08-10T07:38:18.079Z,102986.81
2022-08-10T07:43:23.604Z,102981.09
2022-08-10T07:48:31.521Z,102982.66
2022-08-10T07:53:39.984Z,102978.78
2022-08-10T07:58:51.919Z,102967.66
2022-08-10T08:04:10.682Z,102976.34
2022-08-10T08:09:15.822Z,102966.41
2022-08-10T08:14:22.037Z,102968.16
2022-08-10T08:19:28.585Z,102962.16
2022-08-10T08:24:44.277Z,102955.56
2022-08-10T08:29:49.441Z,102964.41
2022-08-10T08:34:59.055Z,102961.13
2022-08-10T08:40:10.901Z,102965.34
2022-08-10T08:46:00.826Z,102968.78
2022-08-10T08:52:11.363Z,102961.50
2022-08-10T08:57:46.368Z,102960.94
2022-08-10T09:03:00.658Z,102966.22
2022-08-10T09:08:35.478Z,102961.84
2022-08-10T09:13:41.845Z,102959.56
2022-08-10T09:19:45.033Z,102961.88
2022-08-10T09:24:57.353Z,102959.78
2022-08-10T09:30:16.303Z,102960.00
2022-08-10T09:36:21.607Z,102963.59
2022-08-10T09:41:13.097Z,102953.94
2022-08-10T09:46:37.548Z,102956.69
2022-08-10T09:52:04.919Z,102951.00
2022-08-10T09:57:44.747Z,102947.41
2022-08-10T10:02:58.431Z,102943.63
2022-08-10T10:08:23.730Z,102944.22
2022-08-10T10:13:41.536Z,102938.28
2022-08-10T10:19:09.356Z,102933.13
2022-08-10T10:24:34.530Z,102930.50
2022-08-10T10:30:11.607Z,102926.63
2022-08-10T10:35:34.967Z,102912.13
2022-08-10T10:40:45.614Z,102911.88
2022-08-10T10:45:56.886Z,102907.78
2022-08-10T10:51:35.858Z,102908.41
2022-08-10T10:56:56.000Z,102907.69
2022-08-10T11:02:21.911Z,102903.81
2022-08-10T11:07:34.154Z,102892.78
2022-08-10T11:12:51.086Z,102898.53
2022-08-10T11:18:08.570Z,102893.88
2022-08-10T11:23:20.836Z,102881.41
2022-08-10T11:28:41.392Z,102869.34
2022-08-10T11:34:48.256Z,102866.00
2022-08-10T11:39:57.746Z,102869.69
2022-08-10T11:45:03.303Z,102866.84
2022-08-10T11:50:15.748Z,102876.69
2022-08-10T11:55:19.486Z,102872.16
2022-08-10T12:00:24.758Z,102861.34
2022-08-10T12:05:53.730Z,102859.78
2022-08-10T12:10:57.827Z,102850.78
2022-08-10T12:16:21.300Z,102849.44
2022-08-10T12:21:31.934Z,102840.91
2022-08-10T12:26:38.540Z,102851.13
2022-08-10T12:31:44.172Z,102838.53
2022-08-10T12:36:55.159Z,102835.84
2022-08-10T12:42:39.292Z,102840.34
2022-08-10T12:47:50.015Z,102834.88
2022-08-10T12:52:55.805Z,102829.81
2022-08-10T12:57:58.466Z,102821.75
2022-08-10T13:03:03.339Z,102814.97
2022-08-10T13:08:28.149Z,102807.59
2022-08-10T13:13:38.389Z,102799.19
2022-08-10T13:18:44.474Z,102800.63
2022-08-10T13:24:03.519Z,102798.94
2022-08-10T13:29:16.803Z,102790.56
2022-08-10T13:34:42.222Z,102784.34
2022-08-10T13:39:58.471Z,102785.63
2022-08-10T13:45:11.977Z,102781.44
2022-08-10T13:50:33.085Z,102781.56
2022-08-10T13:55:54.886Z,102779.78
2022-08-10T14:00:59.797Z,102786.19
2022-08-10T14:06:03.814Z,102781.44
2022-08-10T14:11:13.571Z,102765.25
2022-08-10T14:16:17.895Z,102762.06
2022-08-10T14:21:24.563Z,102760.38
2022-08-10T14:26:29.819Z,102750.81
2022-08-10T14:31:37.457Z,102745.13
2022-08-10T14:36:58.385Z,102743.03
2022-08-10T14:42:13.713Z,102735.09
2022-08-10T14:47:55.925Z,102737.47
2022-08-10T14:52:50.429Z,102734.03
2022-08-10T14:58:17.184Z,102743.78
2022-08-10T15:03:59.241Z,102733.97
2022-08-10T15:08:47.207Z,102732.38
2022-08-10T15:14:12.415Z,102722.81
2022-08-10T15:20:00.730Z,102724.50
2022-08-10T15:25:24.657Z,102718.84
2022-08-10T15:30:32.006Z,102722.38
2022-08-10T15:35:56.140Z,102730.28
2022-08-10T15:40:59.135Z,102720.84
2022-08-10T15:46:10.691Z,102718.78
2022-08-10T15:51:22.426Z,102722.38
2022-08-10T15:56:39.941Z,102713.16
2022-08-10T16:02:12.944Z,102713.56
2022-08-10T16:07:45.464Z,102706.44
2022-08-10T16:13:01.665Z,102711.00
2022-08-10T16:18:09.870Z,102702.19
2022-08-10T16:23:19.219Z,102704.88
2022-08-10T16:28:31.604Z,102695.19
2022-08-10T16:33:55.108Z,102692.66
2022-08-10T16:38:57.795Z,102680.91
2022-08-10T16:44:01.185Z,102680.56
2022-08-10T16:49:06.074Z,102678.25
2022-08-10T16:54:12.345Z,102668.84
2022-08-10T16:59:20.711Z,102669.13
2022-08-10T17:04:30.427Z,102655.19
2022-08-10T17:09:35.747Z,102655.84
2022-08-10T17:14:43.403Z,102659.19
2022-08-10T17:19:46.026Z,102658.47
2022-08-10T17:24:55.412Z,102648.41
2022-08-10T17:30:03.491Z,102643.50
2022-08-10T17:35:09.846Z,102647.28
2022-08-10T17:40:23.533Z,102639.38
2022-08-10T17:45:47.913Z,102649.31
2022-08-10T17:50:54.201Z,102648.50
2022-08-10T17:56:03.250Z,102650.03
2022-08-10T18:01:41.322Z,102638.75
2022-08-10T18:06:31.315Z,102632.44
2022-08-10T18:11:34.282Z,102638.44
2022-08-10T18:16:41.614Z,102642.72
2022-08-10T18:21:50.428Z,102630.31
2022-08-10T18:26:56.289Z,102633.38
2022-08-10T18:32:01.355Z,102638.16
2022-08-10T18:37:07.194Z,102631.59
2022-08-10T18:42:22.243Z,102640.50
2022-08-10T18:47:36.752Z,102638.88
2022-08-10T18:52:41.138Z,102640.94
2022-08-10T18:58:33.843Z,102635.03
2022-08-10T19:04:07.116Z,102648.13
2022-08-10T19:09:47.013Z,102643.63
2022-08-10T19:15:06.542Z,102652.78
2022-08-10T19:20:26.163Z,102657.72
2022-08-10T19:26:42.865Z,102660.13
2022-08-10T19:31:19.613Z,102655.94
2022-08-10T19:36:23.819Z,102663.34
2022-08-10T19:41:44.394Z,102660.97
2022-08-10T19:47:12.084Z,102648.91
2022-08-10T19:52:23.281Z,102659.31
2022-08-10T19:57:36.220Z,102652.91
2022-08-10T20:02:46.655Z,102664.28
2022-08-10T20:07:59.593Z,102662.25
2022-08-10T20:13:33.196Z,102664.59
2022-08-10T20:18:44.230Z,102664.25
2022-08-10T20:24:09.204Z,102662.09
2022-08-10T20:29:16.110Z,102664.25
2022-08-10T20:34:28.722Z,102656.72
2022-08-10T20:40:01.799Z,102659.06
2022-08-10T20:45:22.749Z,102666.44
2022-08-10T20:50:46.041Z,102667.09
2022-08-10T20:56:12.131Z,102663.13
2022-08-10T21:01:17.315Z,102656.88
2022-08-10T21:06:53.590Z,102651.66
2022-08-10T21:12:15.653Z,102651.03
2022-08-10T21:17:22.104Z,102654.59
2022-08-10T21:22:39.344Z,102643.91
2022-08-10T21:27:59.436Z,102642.66
2022-08-10T21:33:06.674Z,102645.81
2022-08-10T21:38:21.318Z,102634.31
2022-08-10T21:44:09.235Z,102634.31
2022-08-10T21:49:47.916Z,102632.22
2022-08-10T21:55:22.759Z,102623.63
2022-08-10T22:00:43.375Z,102613.81
2022-08-10T22:06:08.765Z,102621.34
2022-08-10T22:11:31.059Z,102623.44
2022-08-10T22:17:04.907Z,102616.31
2022-08-10T22:22:32.083Z,102620.09
2022-08-10T22:27:56.193Z,102611.50
2022-08-10T22:33:41.492Z,102610.88
2022-08-10T22:40:13.101Z,102608.16
2022-08-10T22:45:13.666Z,102608.19
2022-08-10T22:50:28.228Z,102604.44
2022-08-10T22:55:52.274Z,102601.09
2022-08-10T23:01:05.052Z,102594.38
2022-08-10T23:06:10.452Z,102593.31
2022-08-10T23:11:23.061Z,102588.94
2022-08-10T23:16:47.192Z,102595.41
2022-08-10T23:22:09.916Z,102587.88
2022-08-10T23:27:37.418Z,102583.72
2022-08-10T23:32:36.786Z,102591.44
2022-08-10T23:37:42.019Z,102586.16
2022-08-10T23:42:50.470Z,102589.75
2022-08-10T23:47:57.649Z,102579.88
2022-08-10T23:53:02.774Z,102585.50
2022-08-10T23:58:31.707Z,102580.69
